createdAt,value
2018-06-23T00:00:57.745Z,20.74
2018-06-23T00:03:26.361Z,20.80
2018-06-23T00:05:54.764Z,20.89
2018-06-23T00:08:23.348Z,20.88
2018-06-23T00:10:51.973Z,20.93
2018-06-23T00:13:20.601Z,20.88
2018-06-23T00:15:49.213Z,20.68
2018-06-23T00:18:17.784Z,20.72
2018-06-23T00:20:46.351Z,20.66
2018-06-23T00:23:14.888Z,20.62
2018-06-23T00:25:48.943Z,20.46
2018-06-23T00:28:17.573Z,20.40
2018-06-23T00:30:46.193Z,20.21
2018-06-23T00:33:14.752Z,20.58
2018-06-23T00:35:43.466Z,20.68
2018-06-23T00:38:12.146Z,20.69
2018-06-23T00:40:40.688Z,20.71
2018-06-23T00:43:09.350Z,20.76
2018-06-23T00:45:37.923Z,20.84
2018-06-23T00:48:06.503Z,20.88
2018-06-23T00:50:35.068Z,20.81
2018-06-23T00:53:03.703Z,20.69
2018-06-23T00:55:32.276Z,20.52
2018-06-23T00:58:00.981Z,20.54
2018-06-23T01:00:29.586Z,20.39
2018-06-23T01:02:58.383Z,20.23
2018-06-23T01:05:27.296Z,20.07
2018-06-23T01:07:56.234Z,20.00
2018-06-23T01:10:25.113Z,20.02
2018-06-23T01:12:54.076Z,19.90
2018-06-23T01:15:22.696Z,19.79
2018-06-23T01:17:51.263Z,19.80
2018-06-23T01:20:19.941Z,19.88
2018-06-23T01:22:48.546Z,19.90
2018-06-23T01:25:17.571Z,19.94
2018-06-23T01:27:46.216Z,20.07
2018-06-23T01:30:14.813Z,20.03
2018-06-23T01:32:43.383Z,20.08
2018-06-23T01:35:11.982Z,20.10
2018-06-23T01:37:40.556Z,20.08
2018-06-23T01:40:09.219Z,20.07
2018-06-23T01:42:37.755Z,20.05
2018-06-23T01:45:06.303Z,20.01
2018-06-23T01:47:34.916Z,20.07
2018-06-23T01:50:03.672Z,20.04
2018-06-23T01:52:32.255Z,19.77
2018-06-23T01:55:00.838Z,19.66
2018-06-23T01:57:29.387Z,19.64
2018-06-23T01:59:57.916Z,19.65
2018-06-23T02:02:26.455Z,19.66
2018-06-23T02:04:54.983Z,19.60
2018-06-23T02:07:23.545Z,19.52
2018-06-23T02:09:52.131Z,19.45
2018-06-23T02:12:20.630Z,19.46
2018-06-23T02:14:55.003Z,19.44
2018-06-23T02:17:29.144Z,19.37
2018-06-23T02:20:03.390Z,19.34
2018-06-23T02:22:37.483Z,19.30
2018-06-23T02:25:11.651Z,19.30
2018-06-23T02:27:45.899Z,19.34
2018-06-23T02:30:20.224Z,19.26
2018-06-23T02:32:52.835Z,19.23
2018-06-23T02:35:22.284Z,19.24
2018-06-23T02:37:51.281Z,19.14
2018-06-23T02:40:20.334Z,19.19
2018-06-23T02:42:49.355Z,19.13
2018-06-23T02:45:18.326Z,19.15
2018-06-23T02:47:47.296Z,19.04
2018-06-23T02:50:16.291Z,18.94
2018-06-23T02:52:45.176Z,18.88
2018-06-23T02:55:14.104Z,18.82
2018-06-23T02:57:43.036Z,18.79
2018-06-23T03:00:12.019Z,18.74
2018-06-23T03:02:40.947Z,18.78
2018-06-23T03:05:09.979Z,18.70
2018-06-23T03:07:38.669Z,18.68
2018-06-23T03:10:07.326Z,18.62
2018-06-23T03:12:35.916Z,18.56
2018-06-23T03:15:04.776Z,18.56
2018-06-23T03:17:33.505Z,18.66
2018-06-23T03:20:02.170Z,18.75
2018-06-23T03:22:30.831Z,18.72
2018-06-23T03:24:59.544Z,18.59
2018-06-23T03:27:28.106Z,18.59
2018-06-23T03:29:56.729Z,18.63
2018-06-23T03:32:25.323Z,18.62
2018-06-23T03:34:53.931Z,18.72
2018-06-23T03:37:22.529Z,18.73
2018-06-23T03:39:51.174Z,18.64
2018-06-23T03:42:19.749Z,18.61
2018-06-23T03:44:48.301Z,18.59
2018-06-23T03:47:16.886Z,18.73
2018-06-23T03:49:45.491Z,18.63
2018-06-23T03:52:14.084Z,18.68
2018-06-23T03:54:42.676Z,18.74
2018-06-23T03:57:11.464Z,18.79
2018-06-23T03:59:40.371Z,18.86
2018-06-23T04:02:09.376Z,19.04
2018-06-23T04:04:38.219Z,19.23
2018-06-23T04:07:07.186Z,19.36
2018-06-23T04:09:36.118Z,19.63
2018-06-23T04:12:05.149Z,19.62
2018-06-23T04:14:33.859Z,19.74
2018-06-23T04:17:02.801Z,19.83
2018-06-23T04:19:31.502Z,20.16
2018-06-23T04:22:00.096Z,20.13
2018-06-23T04:24:28.710Z,20.23
2018-06-23T04:26:57.343Z,20.38
2018-06-23T04:29:25.961Z,20.29
2018-06-23T04:31:54.633Z,20.71
2018-06-23T04:34:23.299Z,20.66
2018-06-23T04:36:51.903Z,20.78
2018-06-23T04:39:20.574Z,20.70
2018-06-23T04:41:49.264Z,20.78
2018-06-23T04:44:17.875Z,21.29
2018-06-23T04:46:46.456Z,21.72
2018-06-23T04:49:15.378Z,21.81
2018-06-23T04:51:44.300Z,21.81
2018-06-23T04:54:13.220Z,21.83
2018-06-23T04:56:42.116Z,22.14
2018-06-23T04:59:10.870Z,21.83
2018-06-23T05:01:39.493Z,21.96
2018-06-23T05:04:08.231Z,22.22
2018-06-23T05:06:36.911Z,22.16
2018-06-23T05:09:07.464Z,22.34
2018-06-23T05:11:36.207Z,22.53
2018-06-23T05:14:04.939Z,22.49
2018-06-23T05:16:33.536Z,22.62
2018-06-23T05:19:02.323Z,22.60
2018-06-23T05:21:30.983Z,22.89
2018-06-23T05:23:59.616Z,22.96
2018-06-23T05:26:28.343Z,22.91
2018-06-23T05:28:56.963Z,23.17
2018-06-23T05:31:25.896Z,23.36
2018-06-23T05:33:54.895Z,23.10
2018-06-23T05:36:23.814Z,23.11
2018-06-23T05:38:52.690Z,23.43
2018-06-23T05:41:21.415Z,23.64
2018-06-23T05:43:49.933Z,23.85
2018-06-23T05:46:18.553Z,23.45
2018-06-23T05:48:47.082Z,23.75
2018-06-23T05:51:15.809Z,23.79
2018-06-23T05:53:44.375Z,23.80
2018-06-23T05:56:12.943Z,24.02
2018-06-23T05:58:41.487Z,24.19
2018-06-23T06:01:10.268Z,24.24
2018-06-23T06:03:39.150Z,24.54
2018-06-23T06:06:08.066Z,24.42
2018-06-23T06:08:36.991Z,24.47
2018-06-23T06:11:05.984Z,24.62
2018-06-23T06:13:34.841Z,24.56
2018-06-23T06:16:03.806Z,24.37
2018-06-23T06:18:32.643Z,24.92
2018-06-23T06:21:01.618Z,24.92
2018-06-23T06:23:30.236Z,24.73
2018-06-23T06:25:58.771Z,24.92
2018-06-23T06:28:27.420Z,24.77
2018-06-23T06:30:56.048Z,25.08
2018-06-23T06:33:24.908Z,25.38
2018-06-23T06:35:53.866Z,25.05
2018-06-23T06:38:22.751Z,25.34
2018-06-23T06:40:51.654Z,25.68
2018-06-23T06:43:20.445Z,25.80
2018-06-23T06:45:49.176Z,25.37
2018-06-23T06:48:17.776Z,25.26
2018-06-23T06:50:46.390Z,25.43
2018-06-23T06:53:15.020Z,25.59
2018-06-23T06:55:43.553Z,26.03
2018-06-23T06:58:12.250Z,25.79
2018-06-23T07:00:40.836Z,26.11
2018-06-23T07:03:10.756Z,25.86
2018-06-23T07:05:39.388Z,25.87
2018-06-23T07:08:08.023Z,25.81
2018-06-23T07:10:36.583Z,26.44
2018-06-23T07:13:05.113Z,26.63
2018-06-23T07:15:33.734Z,27.06
2018-06-23T07:18:02.331Z,26.44
2018-06-23T07:20:30.904Z,26.74
2018-06-23T07:22:59.609Z,26.24
2018-06-23T07:25:28.169Z,26.20
2018-06-23T07:27:56.713Z,26.28
2018-06-23T07:30:25.306Z,26.53
2018-06-23T07:32:53.919Z,26.89
2018-06-23T07:35:22.673Z,26.79
2018-06-23T07:37:51.667Z,26.99
2018-06-23T07:40:20.572Z,26.96
2018-06-23T07:42:49.278Z,27.27
2018-06-23T07:45:18.188Z,27.37
2018-06-23T07:47:47.224Z,27.59
2018-06-23T07:50:16.263Z,27.75
2018-06-23T07:52:45.201Z,27.92
2018-06-23T07:55:13.928Z,27.75
2018-06-23T07:57:42.471Z,27.55
2018-06-23T08:00:11.008Z,27.66
2018-06-23T08:02:39.596Z,27.20
2018-06-23T08:05:08.443Z,27.16
2018-06-23T08:07:37.373Z,27.42
2018-06-23T08:10:06.497Z,27.78
2018-06-23T08:12:35.597Z,27.92
2018-06-23T08:15:05.189Z,28.23
2018-06-23T08:17:33.818Z,28.52
2018-06-23T08:20:02.484Z,28.37
2018-06-23T08:22:31.443Z,28.46
2018-06-23T08:25:00.233Z,28.16
2018-06-23T08:27:29.069Z,27.95
2018-06-23T08:29:57.698Z,27.96
2018-06-23T08:32:26.251Z,27.80
2018-06-23T08:34:54.783Z,28.11
2018-06-23T08:37:23.464Z,27.66
2018-06-23T08:39:52.473Z,27.39
2018-06-23T08:42:21.698Z,27.67
2018-06-23T08:44:50.448Z,27.97
2018-06-23T08:47:19.370Z,28.20
2018-06-23T08:49:48.589Z,28.60
2018-06-23T08:52:18.064Z,29.09
2018-06-23T08:54:46.996Z,28.84
2018-06-23T08:57:15.911Z,28.35
2018-06-23T08:59:44.843Z,28.71
2018-06-23T09:02:13.926Z,29.04
2018-06-23T09:04:42.881Z,29.73
2018-06-23T09:07:11.765Z,29.93
2018-06-23T09:09:40.690Z,30.33
2018-06-23T09:12:09.561Z,29.95
2018-06-23T09:14:38.495Z,29.98
2018-06-23T09:17:07.139Z,29.80
2018-06-23T09:19:36.951Z,30.24
2018-06-23T09:22:06.055Z,29.86
2018-06-23T09:24:34.931Z,29.36
2018-06-23T09:27:03.811Z,29.27
2018-06-23T09:29:32.553Z,29.43
2018-06-23T09:32:01.119Z,29.95
2018-06-23T09:34:30.144Z,29.63
2018-06-23T09:36:58.862Z,29.98
2018-06-23T09:39:27.712Z,30.63
2018-06-23T09:41:56.671Z,30.72
2018-06-23T09:44:25.535Z,30.13
2018-06-23T09:46:54.546Z,30.35
2018-06-23T09:49:23.554Z,30.74
2018-06-23T09:51:52.466Z,30.22
2018-06-23T09:54:21.361Z,30.60
2018-06-23T09:56:50.256Z,30.30
2018-06-23T09:59:18.951Z,30.03
2018-06-23T10:01:47.660Z,30.14
2018-06-23T10:04:16.258Z,29.37
2018-06-23T10:06:44.881Z,29.49
2018-06-23T10:09:13.456Z,29.80
2018-06-23T10:11:42.198Z,30.36
2018-06-23T10:14:10.893Z,30.74
2018-06-23T10:16:39.484Z,30.75
2018-06-23T10:19:08.068Z,30.84
2018-06-23T10:21:36.777Z,30.45
2018-06-23T10:24:05.497Z,29.65
2018-06-23T10:26:34.096Z,29.43
2018-06-23T10:29:02.737Z,29.77
2018-06-23T10:31:31.411Z,30.02
2018-06-23T10:34:00.032Z,30.94
2018-06-23T10:36:28.626Z,31.07
2018-06-23T10:38:58.275Z,31.14
2018-06-23T10:41:27.105Z,30.86
2018-06-23T10:43:56.050Z,31.12
2018-06-23T10:46:24.932Z,31.02
2018-06-23T10:48:53.845Z,30.96
2018-06-23T10:51:22.808Z,30.47
2018-06-23T10:53:51.758Z,29.99
2018-06-23T10:56:20.710Z,30.16
2018-06-23T10:58:49.667Z,30.81
2018-06-23T11:01:18.896Z,31.31
2018-06-23T11:03:47.813Z,31.03
2018-06-23T11:06:16.983Z,31.16
2018-06-23T11:08:45.943Z,31.16
2018-06-23T11:11:16.201Z,31.34
2018-06-23T11:13:45.183Z,30.88
2018-06-23T11:16:13.841Z,31.00
2018-06-23T11:18:42.461Z,30.92
2018-06-23T11:21:12.977Z,31.02
2018-06-23T11:23:41.671Z,30.94
2018-06-23T11:26:10.993Z,31.06
2018-06-23T11:28:39.642Z,30.57
2018-06-23T11:31:08.326Z,30.23
2018-06-23T11:33:37.062Z,30.90
2018-06-23T11:36:06.231Z,31.39
2018-06-23T11:38:35.006Z,31.45
2018-06-23T11:41:03.741Z,31.56
2018-06-23T11:43:32.796Z,31.27
2018-06-23T11:46:01.799Z,31.58
2018-06-23T11:48:31.239Z,32.04
2018-06-23T11:51:00.247Z,32.24
2018-06-23T11:53:29.312Z,32.09
2018-06-23T11:56:02.024Z,32.37
2018-06-23T11:58:31.173Z,32.74
2018-06-23T12:01:01.257Z,32.92
2018-06-23T12:03:30.096Z,32.49
2018-06-23T12:05:58.868Z,32.58
2018-06-23T12:08:27.498Z,32.47
2018-06-23T12:10:56.182Z,32.54
2018-06-23T12:13:24.866Z,31.72
2018-06-23T12:15:53.475Z,31.15
2018-06-23T12:18:22.113Z,31.07
2018-06-23T12:20:50.690Z,31.50
2018-06-23T12:23:19.370Z,32.35
2018-06-23T12:25:48.312Z,32.10
2018-06-23T12:28:17.243Z,32.50
2018-06-23T12:30:45.996Z,32.48
2018-06-23T12:33:14.778Z,32.05
2018-06-23T12:35:44.054Z,32.16
2018-06-23T12:38:13.840Z,32.38
2018-06-23T12:40:43.770Z,31.88
2018-06-23T12:43:12.905Z,31.65
2018-06-23T12:45:42.075Z,31.44
2018-06-23T12:48:10.980Z,31.64
2018-06-23T12:50:39.601Z,31.87
2018-06-23T12:53:08.221Z,32.50
2018-06-23T12:55:36.788Z,32.26
2018-06-23T12:58:05.533Z,32.65
2018-06-23T13:00:34.076Z,33.42
2018-06-23T13:03:02.678Z,32.54
2018-06-23T13:05:31.479Z,32.49
2018-06-23T13:08:00.475Z,32.83
2018-06-23T13:10:29.452Z,32.35
2018-06-23T13:12:58.895Z,32.27
2018-06-23T13:15:27.565Z,31.88
2018-06-23T13:17:56.171Z,32.12
2018-06-23T13:20:24.766Z,32.53
2018-06-23T13:22:53.369Z,32.49
2018-06-23T13:25:22.308Z,32.31
2018-06-23T13:27:51.308Z,32.14
2018-06-23T13:30:20.369Z,31.19
2018-06-23T13:32:49.379Z,30.99
2018-06-23T13:35:18.361Z,30.60
2018-06-23T13:37:46.966Z,30.49
2018-06-23T13:40:15.648Z,30.20
2018-06-23T13:42:44.320Z,30.33
2018-06-23T13:45:13.186Z,31.05
2018-06-23T13:47:42.079Z,32.51
2018-06-23T13:50:11.028Z,33.19
2018-06-23T13:52:39.956Z,34.01
2018-06-23T13:55:09.110Z,33.88
2018-06-23T13:57:38.097Z,33.27
2018-06-23T14:00:08.660Z,32.23
2018-06-23T14:02:37.640Z,31.02
2018-06-23T14:05:06.796Z,29.84
2018-06-23T14:07:35.603Z,29.77
2018-06-23T14:10:04.849Z,29.79
2018-06-23T14:12:33.495Z,30.57
2018-06-23T14:15:02.162Z,31.62
2018-06-23T14:17:30.838Z,32.28
2018-06-23T14:20:00.288Z,32.87
2018-06-23T14:22:29.056Z,32.88
2018-06-23T14:24:57.808Z,32.54
2018-06-23T14:27:26.443Z,32.50
2018-06-23T14:29:54.896Z,32.64
2018-06-23T14:32:23.568Z,32.88
2018-06-23T14:34:52.189Z,33.41
2018-06-23T14:37:20.921Z,33.00
2018-06-23T14:39:50.012Z,32.75
2018-06-23T14:42:19.054Z,32.78
2018-06-23T14:44:48.074Z,33.05
2018-06-23T14:47:17.364Z,32.91
2018-06-23T14:49:46.387Z,32.89
2018-06-23T14:52:15.245Z,32.53
2018-06-23T14:54:43.870Z,32.22
2018-06-23T14:57:12.543Z,31.70
2018-06-23T14:59:41.472Z,32.17
2018-06-23T15:02:10.439Z,32.69
2018-06-23T15:04:40.064Z,32.75
2018-06-23T15:07:09.136Z,32.37
2018-06-23T15:10:56.601Z,31.75
2018-06-23T15:13:25.513Z,31.74
2018-06-23T15:15:54.555Z,32.16
2018-06-23T15:18:23.484Z,32.16
2018-06-23T15:20:52.517Z,32.63
2018-06-23T15:23:21.489Z,32.48
2018-06-23T15:25:50.246Z,32.64
2018-06-23T15:28:20.266Z,31.95
2018-06-23T15:30:49.183Z,32.16
2018-06-23T15:33:18.059Z,32.24
2018-06-23T15:35:46.824Z,31.65
2018-06-23T15:38:15.475Z,32.11
2018-06-23T15:40:45.077Z,32.69
2018-06-23T15:43:13.692Z,32.90
2018-06-23T15:45:42.476Z,33.05
2018-06-23T15:48:11.407Z,32.83
2018-06-23T15:50:40.347Z,32.46
2018-06-23T15:53:09.349Z,31.92
2018-06-23T15:55:38.416Z,31.67
2018-06-23T15:58:07.413Z,31.11
2018-06-23T16:00:36.349Z,31.39
2018-06-23T16:03:05.706Z,31.43
2018-06-23T16:05:34.514Z,30.80
2018-06-23T16:08:03.309Z,30.98
2018-06-23T16:10:31.864Z,31.24
2018-06-23T16:13:00.438Z,31.17
2018-06-23T16:15:28.991Z,31.14
2018-06-23T16:17:57.531Z,30.63
2018-06-23T16:20:26.109Z,30.33
2018-06-23T16:22:54.739Z,30.60
2018-06-23T16:25:23.313Z,30.44
2018-06-23T16:27:51.926Z,30.43
2018-06-23T16:30:20.519Z,30.12
2018-06-23T16:32:49.179Z,30.19
2018-06-23T16:35:18.110Z,29.74
2018-06-23T16:37:46.369Z,29.66
2018-06-23T16:40:14.999Z,29.74
2018-06-23T16:42:43.556Z,29.15
2018-06-23T16:45:12.121Z,28.70
2018-06-23T16:47:40.818Z,28.77
2018-06-23T16:50:09.375Z,29.09
2018-06-23T16:52:38.105Z,28.93
2018-06-23T16:55:06.809Z,29.11
2018-06-23T16:57:36.218Z,28.92
2018-06-23T17:00:06.021Z,28.85
2018-06-23T17:02:35.091Z,29.09
2018-06-23T17:05:04.119Z,28.95
2018-06-23T17:07:33.050Z,28.92
2018-06-23T17:10:01.943Z,28.99
2018-06-23T17:12:30.905Z,28.41
2018-06-23T17:14:59.431Z,27.45
2018-06-23T17:17:28.048Z,26.70
2018-06-23T17:19:56.595Z,26.24
2018-06-23T17:22:25.126Z,25.85
2018-06-23T17:24:53.651Z,25.76
2018-06-23T17:27:22.223Z,25.59
2018-06-23T17:29:50.793Z,25.40
2018-06-23T17:32:19.403Z,25.28
2018-06-23T17:34:48.188Z,25.22
2018-06-23T17:37:17.188Z,25.14
2018-06-23T17:39:46.053Z,25.06
2018-06-23T17:42:15.017Z,24.92
2018-06-23T17:44:44.101Z,24.86
2018-06-23T17:47:12.738Z,24.78
2018-06-23T17:49:41.376Z,24.73
2018-06-23T17:52:10.574Z,24.67
2018-06-23T17:54:40.288Z,24.58
2018-06-23T17:57:09.205Z,24.54
2018-06-23T17:59:38.239Z,24.53
2018-06-23T18:02:07.864Z,24.41
2018-06-23T18:04:36.716Z,24.26
2018-06-23T18:07:05.676Z,24.24
2018-06-23T18:09:34.416Z,24.13
2018-06-23T18:12:03.076Z,24.07
2018-06-23T18:14:31.696Z,24.01
2018-06-23T18:17:00.403Z,23.97
2018-06-23T18:19:29.091Z,23.85
2018-06-23T18:21:57.651Z,23.83
2018-06-23T18:24:26.353Z,23.76
2018-06-23T18:26:54.951Z,23.64
2018-06-23T18:29:23.581Z,23.50
2018-06-23T18:31:52.132Z,23.45
2018-06-23T18:34:20.970Z,23.34
2018-06-23T18:36:49.901Z,23.24
2018-06-23T18:39:18.845Z,23.07
2018-06-23T18:41:47.911Z,22.96
2018-06-23T18:44:16.974Z,22.92
2018-06-23T18:46:45.620Z,22.81
2018-06-23T18:49:14.256Z,22.51
2018-06-23T18:51:42.978Z,22.35
2018-06-23T18:54:11.626Z,22.52
2018-06-23T18:56:40.238Z,22.59
2018-06-23T18:59:08.879Z,22.42
2018-06-23T19:01:37.643Z,22.46
2018-06-23T19:04:06.306Z,22.52
2018-06-23T19:06:34.988Z,22.45
2018-06-23T19:09:05.549Z,22.37
2018-06-23T19:11:33.917Z,21.30
2018-06-23T19:14:02.708Z,22.21
2018-06-23T19:16:31.561Z,22.10
2018-06-23T19:19:00.621Z,21.95
2018-06-23T19:21:29.631Z,21.45
2018-06-23T19:23:58.636Z,21.51
2018-06-23T19:26:27.586Z,21.66
2018-06-23T19:28:56.528Z,22.00
2018-06-23T19:31:25.476Z,22.17
2018-06-23T19:33:54.494Z,22.20
2018-06-23T19:36:23.888Z,21.94
2018-06-23T19:38:52.725Z,20.83
2018-06-23T19:41:26.506Z,21.52
2018-06-23T19:43:56.556Z,21.41
2018-06-23T19:46:25.616Z,21.21
2018-06-23T19:48:54.770Z,21.07
2018-06-23T19:51:23.754Z,20.97
2018-06-23T19:53:52.691Z,20.93
2018-06-23T19:56:22.166Z,21.00
2018-06-23T19:58:50.952Z,20.90
2018-06-23T20:01:19.524Z,20.67
2018-06-23T20:03:48.886Z,20.53
2018-06-23T20:06:17.539Z,20.55
2018-06-23T20:08:46.196Z,20.48
2018-06-23T20:11:14.836Z,20.45
2018-06-23T20:13:43.533Z,20.38
2018-06-23T20:16:12.397Z,20.29
2018-06-23T20:18:41.271Z,20.28
2018-06-23T20:21:10.156Z,20.18
2018-06-23T20:23:39.362Z,20.04
2018-06-23T20:26:08.154Z,20.08
2018-06-23T20:28:36.768Z,20.01
2018-06-23T20:31:05.666Z,19.90
2018-06-23T20:33:34.344Z,19.92
2018-06-23T20:36:03.737Z,19.94
2018-06-23T20:38:32.343Z,19.90
2018-06-23T20:41:01.021Z,19.90
2018-06-23T20:43:29.851Z,19.79
2018-06-23T20:45:58.736Z,19.67
2018-06-23T20:48:27.765Z,19.72
2018-06-23T20:50:56.696Z,19.73
2018-06-23T20:53:25.584Z,19.59
2018-06-23T20:55:55.279Z,19.54
2018-06-23T20:58:24.130Z,19.48
2018-06-23T21:00:53.040Z,19.39
2018-06-23T21:03:21.901Z,19.38
2018-06-23T21:05:51.656Z,19.33
2018-06-23T21:08:20.628Z,19.34
2018-06-23T21:10:49.550Z,19.35
2018-06-23T21:13:18.430Z,19.33
2018-06-23T21:15:47.309Z,19.35
2018-06-23T21:18:16.214Z,19.16
2018-06-23T21:20:45.144Z,19.22
2018-06-23T21:23:14.034Z,19.36
2018-06-23T21:25:42.791Z,19.39
2018-06-23T21:28:11.377Z,19.46
2018-06-23T21:30:40.014Z,19.50
2018-06-23T21:33:08.436Z,19.57
2018-06-23T21:35:37.038Z,19.51
2018-06-23T21:38:05.583Z,19.55
2018-06-23T21:40:34.171Z,19.42
2018-06-23T21:43:02.775Z,19.32
2018-06-23T21:45:31.440Z,19.18
2018-06-23T21:48:00.313Z,19.23
2018-06-23T21:50:28.903Z,19.13
2018-06-23T21:52:57.473Z,18.89
2018-06-23T21:55:26.257Z,18.67
2018-06-23T21:57:55.096Z,18.60
2018-06-23T22:00:34.377Z,18.54
2018-06-23T22:03:07.291Z,18.29
2018-06-23T22:05:35.975Z,18.18
2018-06-23T22:08:05.669Z,18.14
2018-06-23T22:10:34.199Z,17.84
2018-06-23T22:13:03.038Z,17.67
2018-06-23T22:15:32.036Z,17.48
2018-06-23T22:18:00.873Z,17.40
2018-06-23T22:20:29.756Z,17.36
2018-06-23T22:22:58.417Z,17.52
2018-06-23T22:25:27.048Z,17.56
2018-06-23T22:27:55.696Z,17.60
2018-06-23T22:30:24.306Z,17.53
2018-06-23T22:32:53.453Z,17.55
2018-06-23T22:35:22.346Z,17.55
2018-06-23T22:37:51.251Z,17.42
2018-06-23T22:40:20.168Z,17.26
2018-06-23T22:42:49.038Z,17.12
2018-06-23T22:45:17.856Z,16.85
2018-06-23T22:47:46.773Z,16.61
2018-06-23T22:50:15.691Z,16.43
2018-06-23T22:52:44.531Z,16.39
2018-06-23T22:55:13.401Z,16.44
2018-06-23T22:57:42.296Z,16.36
2018-06-23T23:00:13.323Z,16.28
2018-06-23T23:02:42.861Z,16.20
2018-06-23T23:05:11.828Z,16.11
2018-06-23T23:07:41.110Z,16.08
2018-06-23T23:10:10.526Z,16.01
2018-06-23T23:12:39.285Z,15.99
2018-06-23T23:15:08.462Z,16.01
2018-06-23T23:17:37.078Z,15.89
2018-06-23T23:20:06.255Z,15.85
2018-06-23T23:22:34.798Z,15.54
2018-06-23T23:25:03.403Z,15.44
2018-06-23T23:27:31.907Z,15.65
2018-06-23T23:30:00.478Z,16.06
2018-06-23T23:32:29.235Z,16.08
2018-06-23T23:34:58.094Z,15.98
2018-06-23T23:37:26.993Z,15.99
2018-06-23T23:39:55.875Z,15.64
2018-06-23T23:42:24.615Z,15.07
2018-06-23T23:44:53.173Z,14.74
2018-06-23T23:47:21.720Z,14.70
2018-06-23T23:49:50.281Z,14.43
2018-06-23T23:52:18.892Z,14.31
2018-06-23T23:54:47.496Z,14.34
2018-06-23T23:57:16.095Z,14.34
2018-06-23T23:59:44.728Z,14.24
